Time,TemperatureF,DewpointF,PressureIn,WindDirection,WindDirectionDegrees,WindSpeedMPH,WindSpeedGustMPH,Humidity,HourlyPrecipIn,Conditions,Clouds,dailyrainin,SoftwareType,DateUTC
2013-03-11 00:00:00,41.2,30.7,30.18,SE,138,0.0,0.0,66,0.00,,,0.00,Wunderground v.1.13,2013-03-11 04:00:00,
2013-03-11 00:02:00,41.3,30.8,30.19,SE,138,0.0,0.0,66,0.00,,,0.00,Wunderground v.1.13,2013-03-11 04:02:00,
2013-03-11 00:08:00,41.5,31.0,30.19,SE,138,0.0,0.0,66,0.00,,,0.00,Wunderground v.1.13,2013-03-11 04:08:00,
2013-03-11 00:12:00,41.5,31.0,30.19,SE,138,0.0,0.0,66,0.00,,,0.00,Wunderground v.1.13,2013-03-11 04:12:00,
2013-03-11 00:18:00,41.2,31.4,30.18,SE,138,0.0,0.0,68,0.00,,,0.00,Wunderground v.1.13,2013-03-11 04:18:00,
2013-03-11 00:24:00,41.5,31.7,30.18,SE,138,0.0,0.0,68,0.00,,,0.00,Wunderground v.1.13,2013-03-11 04:24:00,
2013-03-11 00:30:00,40.8,31.4,30.18,SE,138,0.0,0.0,69,0.00,,,0.00,Wunderground v.1.13,2013-03-11 04:30:00,
2013-03-11 00:36:00,40.6,31.6,30.18,SE,138,0.0,0.0,70,0.00,,,0.00,Wunderground v.1.13,2013-03-11 04:36:00,
2013-03-11 00:42:00,40.9,31.5,30.18,SE,138,0.0,0.0,69,0.00,,,0.00,Wunderground v.1.13,2013-03-11 04:42:00,
2013-03-11 00:48:00,40.8,31.4,30.17,SE,138,0.0,0.0,69,0.00,,,0.00,Wunderground v.1.13,2013-03-11 04:48:00,
2013-03-11 00:54:00,40.1,31.4,30.17,SE,138,0.0,0.0,71,0.00,,,0.00,Wunderground v.1.13,2013-03-11 04:54:00,
2013-03-11 01:00:00,40.1,31.4,30.17,SE,138,0.0,0.0,71,0.00,,,0.00,Wunderground v.1.13,2013-03-11 05:00:00,
2013-03-11 01:06:00,39.9,31.3,30.17,SE,138,0.0,0.0,71,0.00,,,0.00,Wunderground v.1.13,2013-03-11 05:06:00,
2013-03-11 01:12:00,40.1,32.1,30.17,SE,138,0.0,0.0,73,0.00,,,0.00,Wunderground v.1.13,2013-03-11 05:12:00,
2013-03-11 01:18:00,39.3,31.7,30.18,SE,138,0.0,0.0,74,0.00,,,0.00,Wunderground v.1.13,2013-03-11 05:18:00,
2013-03-11 01:24:00,39.2,30.9,30.18,SE,138,0.0,0.0,72,0.00,,,0.00,Wunderground v.1.13,2013-03-11 05:24:00,
2013-03-11 01:30:00,39.2,31.3,30.18,SE,138,0.0,0.0,73,0.00,,,0.00,Wunderground v.1.13,2013-03-11 05:30:00,
2013-03-11 01:36:00,38.8,30.9,30.18,SE,138,0.0,0.0,73,0.00,,,0.00,Wunderground v.1.13,2013-03-11 05:36:00,
2013-03-11 01:42:00,38.6,30.7,30.18,SE,138,0.0,0.0,73,0.00,,,0.00,Wunderground v.1.13,2013-03-11 05:42:00,
2013-03-11 01:48:00,38.9,30.6,30.17,SE,138,0.0,0.0,72,0.00,,,0.00,Wunderground v.1.13,2013-03-11 05:48:00,
2013-03-11 01:54:00,38.9,31.3,30.17,SE,138,0.0,0.0,74,0.00,,,0.00,Wunderground v.1.13,2013-03-11 05:54:00,
2013-03-11 02:00:00,38.3,31.7,30.17,SE,138,0.0,0.0,77,0.00,,,0.00,Wunderground v.1.13,2013-03-11 06:00:00,
2013-03-11 02:06:00,37.9,31.3,30.17,SE,138,0.0,0.0,77,0.00,,,0.00,Wunderground v.1.13,2013-03-11 06:06:00,
2013-03-11 02:12:00,38.0,30.1,30.17,SE,138,0.0,0.0,73,0.00,,,0.00,Wunderground v.1.13,2013-03-11 06:12:00,
2013-03-11 02:18:00,38.3,30.7,30.17,SE,138,0.0,0.0,74,0.00,,,0.00,Wunderground v.1.13,2013-03-11 06:18:00,
2013-03-11 02:24:00,37.8,31.9,30.17,SE,138,0.0,0.0,79,0.00,,,0.00,Wunderground v.1.13,2013-03-11 06:24:00,
2013-03-11 02:30:00,37.6,31.0,30.17,SE,138,0.0,0.0,77,0.00,,,0.00,Wunderground v.1.13,2013-03-11 06:30:00,
2013-03-11 02:38:00,37.5,30.6,30.16,SE,138,0.0,0.0,76,0.00,,,0.00,Wunderground v.1.13,2013-03-11 06:38:00,
2013-03-11 02:44:00,37.5,29.6,30.16,SE,138,0.0,0.0,73,0.00,,,0.00,Wunderground v.1.13,2013-03-11 06:44:00,
2013-03-11 02:50:00,37.5,30.0,30.16,SE,138,0.0,0.0,74,0.00,,,0.00,Wunderground v.1.13,2013-03-11 06:50:00,
2013-03-11 02:57:00,37.3,29.8,30.16,SE,138,0.0,0.0,74,0.00,,,0.00,Wunderground v.1.13,2013-03-11 06:57:00,
2013-03-11 03:02:00,37.2,31.3,30.15,SE,138,0.0,0.0,79,0.00,,,0.00,Wunderground v.1.13,2013-03-11 07:02:00,
2013-03-11 03:08:00,37.0,31.7,30.15,SE,138,0.0,0.0,81,0.00,,,0.00,Wunderground v.1.13,2013-03-11 07:08:00,
2013-03-11 03:14:00,36.9,31.0,30.15,SE,138,0.0,0.0,79,0.00,,,0.00,Wunderground v.1.13,2013-03-11 07:14:00,
2013-03-11 03:20:00,36.9,30.4,30.16,SE,138,0.0,0.0,77,0.00,,,0.00,Wunderground v.1.13,2013-03-11 07:20:00,
2013-03-11 03:26:00,36.9,30.4,30.16,SE,138,0.0,0.0,77,0.00,,,0.00,Wunderground v.1.13,2013-03-11 07:26:00,
2013-03-11 03:32:00,36.8,30.3,30.15,SE,138,0.0,0.0,77,0.00,,,0.00,Wunderground v.1.13,2013-03-11 07:32:00,
2013-03-11 03:38:00,36.8,30.3,30.15,SE,138,0.0,0.0,77,0.00,,,0.00,Wunderground v.1.13,2013-03-11 07:38:00,
2013-03-11 03:44:00,36.6,29.7,30.15,SE,138,0.0,0.0,76,0.00,,,0.00,Wunderground v.1.13,2013-03-11 07:44:00,
2013-03-11 03:50:00,36.5,29.7,30.14,SE,138,0.0,0.0,76,0.00,,,0.00,Wunderground v.1.13,2013-03-11 07:50:00,
2013-03-11 03:56:00,36.5,29.7,30.14,SE,138,0.0,0.0,76,0.00,,,0.00,Wunderground v.1.13,2013-03-11 07:56:00,
2013-03-11 04:02:00,36.3,29.8,30.13,SE,138,0.0,0.0,77,0.00,,,0.00,Wunderground v.1.13,2013-03-11 08:02:00,
2013-03-11 04:08:00,36.2,29.7,30.13,SE,138,0.0,0.0,77,0.00,,,0.00,Wunderground v.1.13,2013-03-11 08:08:00,
2013-03-11 04:14:00,36.2,30.0,30.13,SE,138,0.0,0.0,78,0.00,,,0.00,Wunderground v.1.13,2013-03-11 08:14:00,
2013-03-11 04:20:00,36.0,29.8,30.12,SE,138,0.0,0.0,78,0.00,,,0.00,Wunderground v.1.13,2013-03-11 08:20:00,
2013-03-11 04:26:00,35.9,29.4,30.12,SE,138,0.0,0.0,77,0.00,,,0.00,Wunderground v.1.13,2013-03-11 08:26:00,
2013-03-11 04:32:00,35.8,29.6,30.12,SE,138,0.0,0.0,78,0.00,,,0.00,Wunderground v.1.13,2013-03-11 08:32:00,
2013-03-11 04:38:00,35.6,29.4,30.12,SE,138,0.0,0.0,78,0.00,,,0.00,Wunderground v.1.13,2013-03-11 08:38:00,
2013-03-11 04:44:00,35.5,29.3,30.12,SE,138,0.0,0.0,78,0.00,,,0.00,Wunderground v.1.13,2013-03-11 08:44:00,
2013-03-11 04:50:00,35.2,28.7,30.12,SE,138,0.0,0.0,77,0.00,,,0.00,Wunderground v.1.13,2013-03-11 08:50:00,
2013-03-11 04:58:00,35.0,28.8,30.12,SE,138,0.0,0.0,78,0.00,,,0.00,Wunderground v.1.13,2013-03-11 08:58:00,
2013-03-11 05:04:00,34.9,28.7,30.12,SE,138,0.0,0.0,78,0.00,,,0.00,Wunderground v.1.13,2013-03-11 09:04:00,
2013-03-11 05:10:00,34.7,28.5,30.12,SE,138,0.0,0.0,78,0.00,,,0.00,Wunderground v.1.13,2013-03-11 09:10:00,
2013-03-11 05:16:00,34.6,28.8,30.11,SE,138,0.0,0.0,79,0.00,,,0.00,Wunderground v.1.13,2013-03-11 09:16:00,
2013-03-11 05:22:00,34.4,28.6,30.11,SE,138,0.0,0.0,79,0.00,,,0.00,Wunderground v.1.13,2013-03-11 09:22:00,
2013-03-11 05:28:00,34.4,28.6,30.11,SE,138,0.0,0.0,79,0.00,,,0.00,Wunderground v.1.13,2013-03-11 09:28:00,
2013-03-11 05:34:00,34.3,28.5,30.11,SE,138,0.0,0.0,79,0.00,,,0.00,Wunderground v.1.13,2013-03-11 09:34:00,
2013-03-11 05:40:00,34.1,28.6,30.11,SE,138,0.0,0.0,80,0.00,,,0.00,Wunderground v.1.13,2013-03-11 09:40:00,
2013-03-11 05:46:00,34.1,28.9,30.12,SE,138,0.0,0.0,81,0.00,,,0.00,Wunderground v.1.13,2013-03-11 09:46:00,
2013-03-11 05:52:00,34.1,29.2,30.12,SE,138,0.0,0.0,82,0.00,,,0.00,Wunderground v.1.13,2013-03-11 09:52:00,
2013-03-11 05:58:00,34.1,29.5,30.12,SE,138,0.0,0.0,83,0.00,,,0.00,Wunderground v.1.13,2013-03-11 09:58:00,
2013-03-11 06:04:00,34.1,29.2,30.12,SE,140,0.0,0.0,82,0.00,,,0.00,Wunderground v.1.13,2013-03-11 10:04:00,
2013-03-11 06:10:00,34.1,29.5,30.12,SE,138,0.0,0.0,83,0.00,,,0.00,Wunderground v.1.13,2013-03-11 10:10:00,
2013-03-11 06:16:00,34.1,29.5,30.12,SE,138,0.0,0.0,83,0.00,,,0.00,Wunderground v.1.13,2013-03-11 10:16:00,
2013-03-11 06:22:00,34.1,29.8,30.12,SE,138,0.0,0.0,84,0.00,,,0.00,Wunderground v.1.13,2013-03-11 10:22:00,
2013-03-11 06:28:00,34.1,29.5,30.12,SE,138,0.0,0.0,83,0.00,,,0.00,Wunderground v.1.13,2013-03-11 10:28:00,
2013-03-11 06:34:00,34.1,29.5,30.12,SE,138,0.0,0.0,83,0.00,,,0.00,Wunderground v.1.13,2013-03-11 10:34:00,
2013-03-11 06:40:00,34.1,29.5,30.12,SE,138,0.0,0.0,83,0.00,,,0.00,Wunderground v.1.13,2013-03-11 10:40:00,
2013-03-11 06:46:00,34.1,29.5,30.11,SE,138,0.0,0.0,83,0.00,,,0.00,Wunderground v.1.13,2013-03-11 10:46:00,
2013-03-11 06:52:00,34.1,29.5,30.11,SE,138,0.0,0.0,83,0.00,,,0.00,Wunderground v.1.13,2013-03-11 10:52:00,
2013-03-11 06:58:00,34.1,29.8,30.11,SE,140,0.0,0.0,84,0.00,,,0.00,Wunderground v.1.13,2013-03-11 10:58:00,
2013-03-11 07:04:00,34.1,29.8,30.11,SE,138,0.0,0.0,84,0.00,,,0.00,Wunderground v.1.13,2013-03-11 11:04:00,
2013-03-11 07:10:00,34.1,29.8,30.11,SE,138,0.0,0.0,84,0.00,,,0.00,Wunderground v.1.13,2013-03-11 11:10:00,
2013-03-11 07:16:00,34.1,29.8,30.12,SE,140,0.0,0.0,84,0.00,,,0.00,Wunderground v.1.13,2013-03-11 11:16:00,
2013-03-11 07:22:00,34.1,29.8,30.12,SE,138,0.0,0.0,84,0.00,,,0.00,Wunderground v.1.13,2013-03-11 11:22:00,
2013-03-11 07:28:00,34.1,30.1,30.12,SE,138,0.0,0.0,85,0.00,,,0.00,Wunderground v.1.13,2013-03-11 11:28:00,
2013-03-11 07:34:00,34.1,30.1,30.12,SE,140,0.0,0.0,85,0.00,,,0.00,Wunderground v.1.13,2013-03-11 11:34:00,
2013-03-11 07:40:00,34.1,30.1,30.12,SE,138,0.0,0.0,85,0.00,,,0.00,Wunderground v.1.13,2013-03-11 11:40:00,
2013-03-11 07:46:00,34.1,30.1,30.12,SE,138,0.0,0.0,85,0.00,,,0.00,Wunderground v.1.13,2013-03-11 11:46:00,
2013-03-11 07:52:00,34.1,30.4,30.12,SE,138,0.0,0.0,86,0.00,,,0.00,Wunderground v.1.13,2013-03-11 11:52:00,
2013-03-11 07:58:00,34.3,30.5,30.12,SE,138,0.0,0.0,86,0.00,,,0.00,Wunderground v.1.13,2013-03-11 11:58:00,
2013-03-11 08:04:00,34.3,30.8,30.12,SE,140,0.0,0.0,87,0.00,,,0.00,Wunderground v.1.13,2013-03-11 12:04:00,
2013-03-11 08:10:00,34.4,30.9,30.12,SE,140,0.0,0.0,87,0.00,,,0.00,Wunderground v.1.13,2013-03-11 12:10:00,
2013-03-11 08:16:00,34.6,31.1,30.12,SE,140,0.0,0.0,87,0.00,,,0.00,Wunderground v.1.13,2013-03-11 12:16:00,
2013-03-11 08:22:00,34.6,31.1,30.12,SE,138,0.0,0.0,87,0.00,,,0.00,Wunderground v.1.13,2013-03-11 12:22:00,
2013-03-11 08:28:00,34.7,31.5,30.12,SE,138,0.0,0.0,88,0.00,,,0.00,Wunderground v.1.13,2013-03-11 12:28:00,
2013-03-11 08:34:00,35.0,31.8,30.12,SE,138,0.0,0.0,88,0.00,,,0.00,Wunderground v.1.13,2013-03-11 12:34:00,
2013-03-11 08:40:00,35.2,32.3,30.12,SE,140,0.0,0.0,89,0.00,,,0.00,Wunderground v.1.13,2013-03-11 12:40:00,
2013-03-11 08:46:00,35.6,33.0,30.12,SSE,162,0.0,0.0,90,0.00,,,0.00,Wunderground v.1.13,2013-03-11 12:46:00,
2013-03-11 08:52:00,36.2,33.5,30.12,SSE,164,0.0,0.0,90,0.00,,,0.00,Wunderground v.1.13,2013-03-11 12:52:00,
2013-03-11 08:58:00,36.5,33.8,30.12,SSE,162,0.0,0.0,90,0.00,,,0.00,Wunderground v.1.13,2013-03-11 12:58:00,
2013-03-11 09:04:00,37.0,34.3,30.12,SSE,162,0.0,0.0,90,0.00,,,0.00,Wunderground v.1.13,2013-03-11 13:04:00,
2013-03-11 09:10:00,37.6,34.9,30.12,SSE,162,0.0,0.0,90,0.00,,,0.00,Wunderground v.1.13,2013-03-11 13:10:00,
2013-03-11 09:16:00,38.2,35.5,30.12,SSE,162,0.0,0.0,90,0.00,,,0.00,Wunderground v.1.13,2013-03-11 13:16:00,
2013-03-11 09:22:00,38.9,36.2,30.12,SSE,162,0.0,0.0,90,0.00,,,0.00,Wunderground v.1.13,2013-03-11 13:22:00,
2013-03-11 09:28:00,42.3,39.0,30.12,SSE,162,0.0,0.0,88,0.00,,,0.00,Wunderground v.1.13,2013-03-11 13:28:00,
2013-03-11 09:34:00,45.1,39.6,30.12,SSE,162,0.0,0.0,81,0.00,,,0.00,Wunderground v.1.13,2013-03-11 13:34:00,
2013-03-11 09:40:00,46.2,40.0,30.12,SSE,162,0.0,0.0,79,0.00,,,0.00,Wunderground v.1.13,2013-03-11 13:40:00,
2013-03-11 09:46:00,47.3,40.8,30.10,SE,145,0.0,0.0,78,0.00,,,0.00,Wunderground v.1.13,2013-03-11 13:46:00,
2013-03-11 09:53:00,48.2,41.3,30.10,SE,144,0.0,0.0,77,0.00,,,0.00,Wunderground v.1.13,2013-03-11 13:53:00,
2013-03-11 09:58:00,49.4,42.1,30.10,SE,144,0.0,0.0,76,0.00,,,0.00,Wunderground v.1.13,2013-03-11 13:58:00,
2013-03-11 10:04:00,50.5,43.2,30.10,SE,144,0.0,0.0,76,0.00,,,0.00,Wunderground v.1.13,2013-03-11 14:04:00,
2013-03-11 10:10:00,51.9,43.9,30.10,SE,144,0.0,0.0,74,0.00,,,0.00,Wunderground v.1.13,2013-03-11 14:10:00,
2013-03-11 10:16:00,52.8,45.1,30.09,SE,143,0.0,1.0,75,0.00,,,0.00,Wunderground v.1.13,2013-03-11 14:16:00,
2013-03-11 10:22:00,53.8,45.7,30.09,SE,130,0.0,0.0,74,0.00,,,0.00,Wunderground v.1.13,2013-03-11 14:22:00,
2013-03-11 10:28:00,55.3,47.9,30.09,SE,137,0.0,1.0,76,0.00,,,0.00,Wunderground v.1.13,2013-03-11 14:28:00,
2013-03-11 10:34:00,56.5,48.3,30.08,South,185,0.0,2.0,74,0.00,,,0.00,Wunderground v.1.13,2013-03-11 14:34:00,
2013-03-11 10:40:00,56.9,49.1,30.08,SSW,192,1.0,2.0,75,0.00,,,0.00,Wunderground v.1.13,2013-03-11 14:40:00,
2013-03-11 10:46:00,57.5,48.9,30.07,East,99,0.0,1.0,73,0.00,,,0.00,Wunderground v.1.13,2013-03-11 14:46:00,
2013-03-11 10:52:00,58.0,49.4,30.07,SE,133,1.0,2.0,73,0.00,,,0.00,Wunderground v.1.13,2013-03-11 14:52:00,
2013-03-11 10:58:00,58.4,49.4,30.07,SSW,209,2.0,5.0,72,0.00,,,0.00,Wunderground v.1.13,2013-03-11 14:58:00,
2013-03-11 11:04:00,58.7,49.3,30.07,SSE,158,1.0,3.0,71,0.00,,,0.00,Wunderground v.1.13,2013-03-11 15:04:00,
2013-03-11 11:10:00,59.3,49.5,30.07,South,176,1.0,2.0,70,0.00,,,0.00,Wunderground v.1.13,2013-03-11 15:10:00,
2013-03-11 11:18:00,59.9,49.3,30.07,SSW,206,1.0,2.0,68,0.00,,,0.00,Wunderground v.1.13,2013-03-11 15:18:00,
2013-03-11 11:24:00,60.2,49.6,30.07,SSW,202,2.0,2.0,68,0.00,,,0.00,Wunderground v.1.13,2013-03-11 15:24:00,
2013-03-11 11:30:00,61.0,50.0,30.07,SSW,206,2.0,2.0,67,0.00,,,0.00,Wunderground v.1.13,2013-03-11 15:30:00,
2013-03-11 11:36:00,62.1,50.2,30.07,South,171,1.0,1.0,65,0.00,,,0.00,Wunderground v.1.13,2013-03-11 15:36:00,
2013-03-11 11:42:00,62.3,50.0,30.07,South,178,0.0,0.0,64,0.00,,,0.00,Wunderground v.1.13,2013-03-11 15:42:00,
2013-03-11 11:48:00,62.7,49.9,30.07,SE,145,0.0,0.0,63,0.00,,,0.00,Wunderground v.1.13,2013-03-11 15:48:00,
2013-03-11 11:54:00,63.2,50.8,30.07,SSW,196,0.0,0.0,64,0.00,,,0.00,Wunderground v.1.13,2013-03-11 15:54:00,
2013-03-11 12:00:00,63.7,49.5,30.07,SW,236,1.0,1.0,60,0.00,,,0.00,Wunderground v.1.13,2013-03-11 16:00:00,
2013-03-11 12:06:00,63.9,49.3,30.07,West,267,1.0,1.0,59,0.00,,,0.00,Wunderground v.1.13,2013-03-11 16:06:00,
2013-03-11 12:12:00,64.2,49.1,30.07,SW,215,1.0,7.0,58,0.00,,,0.00,Wunderground v.1.13,2013-03-11 16:12:00,
2013-03-11 12:18:00,64.0,49.4,30.06,SW,229,2.0,2.0,59,0.00,,,0.00,Wunderground v.1.13,2013-03-11 16:18:00,
2013-03-11 12:24:00,65.0,49.4,30.06,South,179,1.0,2.0,57,0.00,,,0.00,Wunderground v.1.13,2013-03-11 16:24:00,
2013-03-11 12:30:00,65.0,49.4,30.06,WSW,250,0.0,6.0,57,0.00,,,0.00,Wunderground v.1.13,2013-03-11 16:30:00,
2013-03-11 12:36:00,64.8,49.2,30.06,SSW,210,2.0,2.0,57,0.00,,,0.00,Wunderground v.1.13,2013-03-11 16:36:00,
2013-03-11 12:42:00,65.3,50.1,30.06,SW,236,2.0,2.0,58,0.00,,,0.00,Wunderground v.1.13,2013-03-11 16:42:00,
2013-03-11 12:48:00,65.6,50.0,30.05,South,186,1.0,6.0,57,0.00,,,0.00,Wunderground v.1.13,2013-03-11 16:48:00,
2013-03-11 12:54:00,65.5,49.9,30.05,South,174,1.0,2.0,57,0.00,,,0.00,Wunderground v.1.13,2013-03-11 16:54:00,
2013-03-11 13:00:00,65.8,49.7,30.05,SE,141,1.0,1.0,56,0.00,,,0.00,Wunderground v.1.13,2013-03-11 17:00:00,
2013-03-11 13:10:00,66.9,49.7,30.04,WSW,240,0.0,0.0,54,0.00,,,0.00,Wunderground v.1.13,2013-03-11 17:10:00,
2013-03-11 13:16:00,66.4,49.7,30.03,SSW,205,1.0,2.0,55,0.00,,,0.00,Wunderground v.1.13,2013-03-11 17:16:00,
2013-03-11 13:22:00,66.3,49.6,30.03,South,172,1.0,1.0,55,0.00,,,0.00,Wunderground v.1.13,2013-03-11 17:22:00,
2013-03-11 13:28:00,66.9,49.2,30.03,South,174,1.0,4.0,53,0.00,,,0.00,Wunderground v.1.13,2013-03-11 17:28:00,
2013-03-11 13:34:00,66.9,49.2,30.03,SE,126,1.0,1.0,53,0.00,,,0.00,Wunderground v.1.13,2013-03-11 17:34:00,
2013-03-11 13:40:00,66.8,49.1,30.03,West,272,0.0,1.0,53,0.00,,,0.00,Wunderground v.1.13,2013-03-11 17:40:00,
2013-03-11 13:46:00,66.8,49.1,30.02,South,182,0.0,0.0,53,0.00,,,0.00,Wunderground v.1.13,2013-03-11 17:46:00,
2013-03-11 13:52:00,66.9,49.2,30.02,SSE,154,1.0,1.0,53,0.00,,,0.00,Wunderground v.1.13,2013-03-11 17:52:00,
2013-03-11 13:58:00,67.3,49.1,30.02,South,179,1.0,7.0,52,0.00,,,0.00,Wunderground v.1.13,2013-03-11 17:58:00,
2013-03-11 14:04:00,67.3,49.1,30.01,SSW,205,2.0,2.0,52,0.00,,,0.00,Wunderground v.1.13,2013-03-11 18:04:00,
2013-03-11 14:10:00,68.1,49.3,30.01,SW,234,2.0,8.0,51,0.00,,,0.00,Wunderground v.1.13,2013-03-11 18:10:00,
2013-03-11 14:18:00,68.9,48.9,30.00,SSW,213,2.0,6.0,49,0.00,,,0.00,Wunderground v.1.13,2013-03-11 18:18:00,
2013-03-11 14:24:00,68.4,49.0,30.00,SSW,193,2.0,3.0,50,0.00,,,0.00,Wunderground v.1.13,2013-03-11 18:24:00,
2013-03-11 14:30:00,68.6,48.7,30.00,South,191,2.0,3.0,49,0.00,,,0.00,Wunderground v.1.13,2013-03-11 18:30:00,
2013-03-11 14:38:00,67.9,49.1,29.99,West,268,3.0,3.0,51,0.00,,,0.00,Wunderground v.1.13,2013-03-11 18:38:00,
2013-03-11 14:44:00,68.1,49.3,29.99,SSE,154,1.0,3.0,51,0.00,,,0.00,Wunderground v.1.13,2013-03-11 18:44:00,
2013-03-11 14:50:00,68.6,49.2,29.97,SW,219,1.0,2.0,50,0.00,,,0.00,Wunderground v.1.13,2013-03-11 18:50:00,
2013-03-11 14:58:00,68.8,48.3,29.97,SSE,161,1.0,1.0,48,0.00,,,0.00,Wunderground v.1.13,2013-03-11 18:58:00,
2013-03-11 15:04:00,68.8,48.9,29.96,SSE,157,1.0,4.0,49,0.00,,,0.00,Wunderground v.1.13,2013-03-11 19:04:00,
2013-03-11 15:10:00,68.9,47.8,29.96,SSW,203,1.0,3.0,47,0.00,,,0.00,Wunderground v.1.13,2013-03-11 19:10:00,
2013-03-11 15:16:00,69.1,47.4,29.95,South,182,1.0,3.0,46,0.00,,,0.00,Wunderground v.1.13,2013-03-11 19:16:00,
2013-03-11 15:22:00,68.9,47.3,29.95,SSW,199,1.0,1.0,46,0.00,,,0.00,Wunderground v.1.13,2013-03-11 19:22:00,
2013-03-11 15:28:00,68.8,47.2,29.95,SSW,198,1.0,1.0,46,0.00,,,0.00,Wunderground v.1.13,2013-03-11 19:28:00,
2013-03-11 15:34:00,68.9,47.8,29.95,SSW,209,1.0,4.0,47,0.00,,,0.00,Wunderground v.1.13,2013-03-11 19:34:00,
2013-03-11 15:40:00,69.1,48.0,29.95,SSE,165,1.0,1.0,47,0.00,,,0.00,Wunderground v.1.13,2013-03-11 19:40:00,
2013-03-11 15:46:00,69.1,48.0,29.93,South,178,1.0,2.0,47,0.00,,,0.00,Wunderground v.1.13,2013-03-11 19:46:00,
2013-03-11 15:53:00,68.9,48.4,29.93,ESE,116,1.0,4.0,48,0.00,,,0.00,Wunderground v.1.13,2013-03-11 19:53:00,
2013-03-11 15:58:00,68.8,48.3,29.93,SE,141,1.0,1.0,48,0.00,,,0.00,Wunderground v.1.13,2013-03-11 19:58:00,
2013-03-11 16:04:00,68.8,48.3,29.92,SSE,167,1.0,2.0,48,0.00,,,0.00,Wunderground v.1.13,2013-03-11 20:04:00,
2013-03-11 16:10:00,68.9,48.4,29.92,SSW,202,0.0,5.0,48,0.00,,,0.00,Wunderground v.1.13,2013-03-11 20:10:00,
2013-03-11 16:16:00,68.9,48.4,29.92,SSW,193,1.0,4.0,48,0.00,,,0.00,Wunderground v.1.13,2013-03-11 20:16:00,
2013-03-11 16:22:00,68.4,47.9,29.92,SW,219,3.0,7.0,48,0.00,,,0.00,Wunderground v.1.13,2013-03-11 20:22:00,
2013-03-11 16:28:00,68.4,48.5,29.92,SSE,165,2.0,3.0,49,0.00,,,0.00,Wunderground v.1.13,2013-03-11 20:28:00,
2013-03-11 16:34:00,68.3,48.4,29.92,SE,144,1.0,6.0,49,0.00,,,0.00,Wunderground v.1.13,2013-03-11 20:34:00,
2013-03-11 16:40:00,68.1,48.2,29.92,South,186,2.0,6.0,49,0.00,,,0.00,Wunderground v.1.13,2013-03-11 20:40:00,
2013-03-11 16:46:00,68.3,48.9,29.92,SW,216,2.0,2.0,50,0.00,,,0.00,Wunderground v.1.13,2013-03-11 20:46:00,
2013-03-11 16:52:00,68.3,48.9,29.92,SW,216,3.0,5.0,50,0.00,,,0.00,Wunderground v.1.13,2013-03-11 20:52:00,
2013-03-11 16:58:00,68.3,48.9,29.92,South,171,3.0,3.0,50,0.00,,,0.00,Wunderground v.1.13,2013-03-11 20:58:00,
2013-03-11 17:04:00,67.9,49.1,29.92,SSW,199,2.0,3.0,51,0.00,,,0.00,Wunderground v.1.13,2013-03-11 21:04:00,
2013-03-11 17:10:00,67.9,49.6,29.92,SE,131,2.0,2.0,52,0.00,,,0.00,Wunderground v.1.13,2013-03-11 21:10:00,
2013-03-11 17:16:00,67.8,50.0,29.93,SSW,192,1.0,1.0,53,0.00,,,0.00,Wunderground v.1.13,2013-03-11 21:16:00,
2013-03-11 17:24:00,67.4,50.2,29.93,SE,136,1.0,1.0,54,0.00,,,0.00,Wunderground v.1.13,2013-03-11 21:24:00,
2013-03-11 17:30:00,67.1,50.4,29.93,SSE,154,1.0,1.0,55,0.00,,,0.00,Wunderground v.1.13,2013-03-11 21:30:00,
2013-03-11 17:36:00,66.8,50.6,29.92,SSE,168,1.0,5.0,56,0.00,,,0.00,Wunderground v.1.13,2013-03-11 21:36:00,
2013-03-11 17:42:00,66.6,50.4,29.92,South,171,1.0,1.0,56,0.00,,,0.00,Wunderground v.1.13,2013-03-11 21:42:00,
2013-03-11 17:48:00,66.6,50.9,29.92,SE,144,1.0,5.0,57,0.00,,,0.00,Wunderground v.1.13,2013-03-11 21:48:00,
2013-03-11 17:54:00,66.4,50.7,29.92,South,172,2.0,3.0,57,0.00,,,0.00,Wunderground v.1.13,2013-03-11 21:54:00,
2013-03-11 18:00:00,66.3,51.1,29.92,ESE,110,2.0,4.0,58,0.00,,,0.00,Wunderground v.1.13,2013-03-11 22:00:00,
2013-03-11 18:06:00,66.1,50.9,29.91,SSE,147,2.0,2.0,58,0.00,,,0.00,Wunderground v.1.13,2013-03-11 22:06:00,
2013-03-11 18:12:00,66.0,51.3,29.91,SSE,165,1.0,1.0,59,0.00,,,0.00,Wunderground v.1.13,2013-03-11 22:12:00,
2013-03-11 18:20:00,65.8,51.1,29.91,SSE,157,1.0,3.0,59,0.00,,,0.00,Wunderground v.1.13,2013-03-11 22:20:00,
2013-03-11 18:28:00,65.8,51.1,29.91,SSW,202,1.0,1.0,59,0.00,,,0.00,Wunderground v.1.13,2013-03-11 22:28:00,
2013-03-11 18:34:00,65.6,51.3,29.91,SSE,147,2.0,5.0,60,0.00,,,0.00,Wunderground v.1.13,2013-03-11 22:34:00,
2013-03-11 18:40:00,65.5,51.2,29.91,SE,141,1.0,1.0,60,0.00,,,0.00,Wunderground v.1.13,2013-03-11 22:40:00,
2013-03-11 18:46:00,65.3,51.5,29.91,South,172,0.0,1.0,61,0.00,,,0.00,Wunderground v.1.13,2013-03-11 22:46:00,
2013-03-11 18:54:00,65.3,51.5,29.91,South,179,1.0,1.0,61,0.00,,,0.00,Wunderground v.1.13,2013-03-11 22:54:00,
2013-03-11 19:00:00,65.2,51.4,29.91,SSE,167,1.0,3.0,61,0.00,,,0.00,Wunderground v.1.13,2013-03-11 23:00:00,
2013-03-11 19:07:00,65.2,51.4,29.89,ESE,112,2.0,2.0,61,0.00,,,0.00,Wunderground v.1.13,2013-03-11 23:07:00,
2013-03-11 19:12:00,65.0,51.2,29.89,South,176,1.0,1.0,61,0.00,,,0.00,Wunderground v.1.13,2013-03-11 23:12:00,
2013-03-11 19:18:00,64.8,51.5,29.89,SSE,151,1.0,2.0,62,0.00,,,0.00,Wunderground v.1.13,2013-03-11 23:18:00,
2013-03-11 19:24:00,64.8,51.5,29.89,ESE,120,2.0,6.0,62,0.00,,,0.00,Wunderground v.1.13,2013-03-11 23:24:00,
2013-03-11 19:30:00,64.7,51.4,29.89,ESE,107,1.0,6.0,62,0.00,,,0.00,Wunderground v.1.13,2013-03-11 23:30:00,
2013-03-11 19:36:00,64.7,51.8,29.89,South,178,3.0,8.0,63,0.00,,,0.00,Wunderground v.1.13,2013-03-11 23:36:00,
2013-03-11 19:42:00,64.5,51.6,29.89,SSE,150,3.0,3.0,63,0.00,,,0.00,Wunderground v.1.13,2013-03-11 23:42:00,
2013-03-11 19:48:00,64.3,51.9,29.89,South,171,2.0,3.0,64,0.00,,,0.00,Wunderground v.1.13,2013-03-11 23:48:00,
2013-03-11 19:54:00,64.2,52.2,29.89,SSW,196,1.0,1.0,65,0.00,,,0.00,Wunderground v.1.13,2013-03-11 23:54:00,
2013-03-11 20:00:00,64.0,52.4,29.89,SE,130,1.0,1.0,66,0.00,,,0.00,Wunderground v.1.13,2013-03-12 00:00:00,
2013-03-11 20:10:00,63.9,52.7,29.89,South,172,1.0,1.0,67,0.00,,,0.00,Wunderground v.1.13,2013-03-12 00:10:00,
2013-03-11 20:16:00,63.7,52.5,29.90,SE,141,2.0,3.0,67,0.00,,,0.00,Wunderground v.1.13,2013-03-12 00:16:00,
2013-03-11 20:23:00,63.5,52.7,29.90,SSE,155,1.0,1.0,68,0.00,,,0.00,Wunderground v.1.13,2013-03-12 00:23:00,
2013-03-11 20:28:00,63.4,52.7,29.90,South,172,1.0,1.0,68,0.00,,,0.00,Wunderground v.1.13,2013-03-12 00:28:00,
2013-03-11 20:34:00,63.2,52.5,29.90,South,175,1.0,1.0,68,0.00,,,0.00,Wunderground v.1.13,2013-03-12 00:34:00,
2013-03-11 20:40:00,63.2,52.9,29.90,SSW,200,1.0,1.0,69,0.00,,,0.00,Wunderground v.1.13,2013-03-12 00:40:00,
2013-03-11 20:46:00,63.1,52.8,29.90,ESE,112,1.0,3.0,69,0.00,,,0.00,Wunderground v.1.13,2013-03-12 00:46:00,
2013-03-11 20:54:00,63.1,53.2,29.90,SSW,195,1.0,1.0,70,0.00,,,0.00,Wunderground v.1.13,2013-03-12 00:54:00,
2013-03-11 21:00:00,62.9,52.6,29.90,SSE,168,1.0,5.0,69,0.00,,,0.00,Wunderground v.1.13,2013-03-12 01:00:00,
2013-03-11 21:06:00,62.9,52.6,29.91,South,171,1.0,1.0,69,0.00,,,0.00,Wunderground v.1.13,2013-03-12 01:06:00,
2013-03-11 21:12:00,62.9,52.6,29.91,SW,220,0.0,0.0,69,0.00,,,0.00,Wunderground v.1.13,2013-03-12 01:12:00,
2013-03-11 21:18:00,62.9,52.6,29.91,South,185,1.0,1.0,69,0.00,,,0.00,Wunderground v.1.13,2013-03-12 01:18:00,
2013-03-11 21:24:00,62.9,52.6,29.91,SSE,165,1.0,1.0,69,0.00,,,0.00,Wunderground v.1.13,2013-03-12 01:24:00,
2013-03-11 21:30:00,62.9,52.6,29.91,South,185,1.0,1.0,69,0.00,,,0.00,Wunderground v.1.13,2013-03-12 01:30:00,
2013-03-11 21:36:00,62.7,52.4,29.90,SSW,209,1.0,1.0,69,0.00,,,0.00,Wunderground v.1.13,2013-03-12 01:36:00,
2013-03-11 21:42:00,62.7,52.4,29.90,South,176,1.0,3.0,69,0.00,,,0.00,Wunderground v.1.13,2013-03-12 01:42:00,
2013-03-11 21:48:00,62.6,52.3,29.90,South,179,1.0,1.0,69,0.00,,,0.00,Wunderground v.1.13,2013-03-12 01:48:00,
2013-03-11 21:54:00,62.6,52.3,29.90,South,184,1.0,2.0,69,0.00,,,0.00,Wunderground v.1.13,2013-03-12 01:54:00,
2013-03-11 22:00:00,62.4,52.5,29.90,SSE,168,1.0,1.0,70,0.00,,,0.00,Wunderground v.1.13,2013-03-12 02:00:00,
2013-03-11 22:06:00,62.4,52.5,29.89,South,182,1.0,1.0,70,0.00,,,0.00,Wunderground v.1.13,2013-03-12 02:06:00,
2013-03-11 22:12:00,62.3,52.4,29.89,South,182,0.0,0.0,70,0.00,,,0.00,Wunderground v.1.13,2013-03-12 02:12:00,
2013-03-11 22:18:00,62.3,52.4,29.89,SSE,147,0.0,0.0,70,0.00,,,0.00,Wunderground v.1.13,2013-03-12 02:18:00,
2013-03-11 22:24:00,62.1,52.2,29.89,SSE,155,0.0,0.0,70,0.00,,,0.00,Wunderground v.1.13,2013-03-12 02:24:00,
2013-03-11 22:30:00,62.1,52.2,29.89,ESE,113,1.0,1.0,70,0.00,,,0.00,Wunderground v.1.13,2013-03-12 02:30:00,
2013-03-11 22:36:00,62.0,52.1,29.88,West,268,1.0,1.0,70,0.00,,,0.00,Wunderground v.1.13,2013-03-12 02:36:00,
2013-03-11 22:42:00,61.8,51.9,29.88,West,268,0.0,0.0,70,0.00,,,0.00,Wunderground v.1.13,2013-03-12 02:42:00,
2013-03-11 22:48:00,61.8,52.3,29.88,West,268,0.0,0.0,71,0.00,,,0.00,Wunderground v.1.13,2013-03-12 02:48:00,
2013-03-11 22:54:00,61.6,52.1,29.88,West,267,0.0,0.0,71,0.00,,,0.00,Wunderground v.1.13,2013-03-12 02:54:00,
2013-03-11 23:00:00,61.6,52.1,29.88,South,181,0.0,0.0,71,0.00,,,0.00,Wunderground v.1.13,2013-03-12 03:00:00,
2013-03-11 23:08:00,61.6,52.1,29.89,NE,54,0.0,0.0,71,0.00,,,0.00,Wunderground v.1.13,2013-03-12 03:08:00,
2013-03-11 23:14:00,61.5,52.4,29.89,ESE,123,0.0,2.0,72,0.00,,,0.00,Wunderground v.1.13,2013-03-12 03:14:00,
2013-03-11 23:20:00,61.5,52.4,29.89,South,188,0.0,0.0,72,0.00,,,0.00,Wunderground v.1.13,2013-03-12 03:20:00,
2013-03-11 23:26:00,61.5,52.4,29.89,SSE,147,0.0,0.0,72,0.00,,,0.00,Wunderground v.1.13,2013-03-12 03:26:00,
2013-03-11 23:32:00,61.5,52.4,29.88,SSE,151,0.0,0.0,72,0.00,,,0.00,Wunderground v.1.13,2013-03-12 03:32:00,
2013-03-11 23:38:00,61.5,52.4,29.88,SSE,151,0.0,0.0,72,0.00,,,0.00,Wunderground v.1.13,2013-03-12 03:38:00,
2013-03-11 23:44:00,61.3,52.6,29.88,ESE,109,0.0,3.0,73,0.00,,,0.00,Wunderground v.1.13,2013-03-12 03:44:00,
2013-03-11 23:50:00,61.3,52.6,29.87,South,191,1.0,2.0,73,0.00,,,0.00,Wunderground v.1.13,2013-03-12 03:50:00,
2013-03-11 23:56:00,61.3,52.6,29.87,South,189,0.0,1.0,73,0.00,,,0.00,Wunderground v.1.13,2013-03-12 03:56:00,